createdAt,value
2023-04-18T00:02:19.655Z,8.80
2023-04-18T00:04:50.589Z,8.70
2023-04-18T00:07:21.111Z,8.70
2023-04-18T00:09:53.125Z,8.70
2023-04-18T00:12:23.452Z,8.70
2023-04-18T00:14:54.009Z,8.70
2023-04-18T00:17:26.753Z,8.70
2023-04-18T00:19:58.473Z,8.70
2023-04-18T00:22:28.656Z,8.70
2023-04-18T00:25:01.218Z,8.70
2023-04-18T00:27:31.486Z,8.70
2023-04-18T00:30:02.071Z,8.70
2023-04-18T00:32:32.271Z,8.70
2023-04-18T00:35:04.289Z,8.70
2023-04-18T00:37:34.496Z,8.70
2023-04-18T00:40:08.268Z,8.70
2023-04-18T00:42:38.444Z,8.60
2023-04-18T00:45:11.590Z,8.70
2023-04-18T00:47:42.054Z,8.70
2023-04-18T00:50:14.475Z,8.60
2023-04-18T00:52:47.151Z,8.60
2023-04-18T00:55:20.051Z,8.70
2023-04-18T00:57:50.218Z,8.60
2023-04-18T01:00:21.152Z,8.60
2023-04-18T01:02:53.521Z,8.60
2023-04-18T01:05:24.884Z,8.60
2023-04-18T01:07:58.832Z,8.50
2023-04-18T01:10:31.966Z,8.60
2023-04-18T01:13:16.676Z,8.60
2023-04-18T01:15:49.533Z,8.50
2023-04-18T01:18:20.957Z,8.50
2023-04-18T01:20:54.879Z,8.60
2023-04-18T01:23:25.042Z,8.60
2023-04-18T01:25:57.017Z,8.60
2023-04-18T01:28:29.994Z,8.50
2023-04-18T01:31:00.546Z,8.50
2023-04-18T01:33:30.952Z,8.50
2023-04-18T01:36:01.557Z,8.50
2023-04-18T01:38:34.426Z,8.50
2023-04-18T01:41:06.495Z,8.50
2023-04-18T01:43:36.762Z,8.50
2023-04-18T01:46:07.701Z,8.40
2023-04-18T01:48:38.738Z,8.50
2023-04-18T01:51:09.964Z,8.40
2023-04-18T01:53:41.982Z,8.40
2023-04-18T01:56:14.364Z,8.40
2023-04-18T01:58:46.088Z,8.40
2023-04-18T02:01:17.164Z,8.40
2023-04-18T02:03:47.869Z,8.40
2023-04-18T02:06:20.168Z,8.40
2023-04-18T02:08:54.837Z,8.40
2023-04-18T02:11:31.205Z,8.40
2023-04-18T02:14:02.095Z,8.40
2023-04-18T02:16:32.723Z,8.40
2023-04-18T02:19:04.604Z,8.40
2023-04-18T02:21:35.321Z,8.40
2023-04-18T02:24:05.996Z,8.40
2023-04-18T02:26:38.210Z,8.40
2023-04-18T02:29:08.686Z,8.40
2023-04-18T02:31:41.321Z,8.30
2023-04-18T02:34:12.144Z,8.30
2023-04-18T02:36:43.821Z,8.30
2023-04-18T02:39:14.430Z,8.30
2023-04-18T02:41:47.955Z,8.30
2023-04-18T02:44:19.114Z,8.30
2023-04-18T02:46:50.174Z,8.30
2023-04-18T02:49:20.678Z,8.30
2023-04-18T02:51:51.844Z,8.30
2023-04-18T02:54:22.776Z,8.30
2023-04-18T02:57:14.703Z,8.30
2023-04-18T03:00:25.146Z,8.30
2023-04-18T03:03:05.909Z,8.30
2023-04-18T03:05:50.361Z,8.40
2023-04-18T03:08:20.927Z,8.30
2023-04-18T03:10:51.535Z,8.30
2023-04-18T03:13:27.503Z,8.30
2023-04-18T03:15:58.550Z,8.30
2023-04-18T03:18:31.614Z,8.30
2023-04-18T03:21:07.850Z,8.30
2023-04-18T03:23:40.005Z,8.30
2023-04-18T03:26:13.979Z,8.30
2023-04-18T03:28:47.610Z,8.30
2023-04-18T03:31:19.414Z,8.30
2023-04-18T03:33:51.772Z,8.30
2023-04-18T03:36:25.513Z,8.30
2023-04-18T03:38:58.072Z,8.30
2023-04-18T03:41:30.040Z,8.30
2023-04-18T03:44:02.761Z,8.20
2023-04-18T03:46:37.857Z,8.30
2023-04-18T03:49:09.355Z,8.30
2023-04-18T03:51:47.916Z,8.20
2023-04-18T03:54:19.312Z,8.30
2023-04-18T03:56:49.867Z,8.20
2023-04-18T03:59:22.229Z,8.30
2023-04-18T04:01:54.489Z,8.20
2023-04-18T04:04:26.446Z,8.20
2023-04-18T04:06:57.171Z,8.20
2023-04-18T04:09:28.141Z,8.20
2023-04-18T04:11:58.704Z,8.20
2023-04-18T04:14:31.219Z,8.20
2023-04-18T04:17:01.822Z,8.30
2023-04-18T04:19:33.882Z,8.20
2023-04-18T04:22:14.071Z,8.20
2023-04-18T04:24:46.934Z,8.20
2023-04-18T04:27:21.154Z,8.20
2023-04-18T04:29:54.162Z,8.20
2023-04-18T04:32:25.522Z,8.20
2023-04-18T04:34:57.714Z,8.20
2023-04-18T04:37:29.480Z,8.20
2023-04-18T04:40:13.485Z,8.20
2023-04-18T04:42:56.960Z,8.20
2023-04-18T04:45:36.428Z,8.20
2023-04-18T04:48:07.792Z,8.20
2023-04-18T04:50:41.774Z,8.30
2023-04-18T04:53:14.742Z,8.30
2023-04-18T04:55:45.884Z,8.30
2023-04-18T04:58:17.214Z,8.30
2023-04-18T05:01:09.322Z,8.30
2023-04-18T05:03:41.447Z,8.30
2023-04-18T05:06:12.577Z,8.30
2023-04-18T05:08:42.950Z,8.30
2023-04-18T05:11:14.335Z,8.30
2023-04-18T05:13:44.713Z,8.30
2023-04-18T05:16:17.392Z,8.40
2023-04-18T05:18:47.882Z,8.30
2023-04-18T05:21:18.574Z,8.30
2023-04-18T05:23:49.293Z,8.30
2023-04-18T05:26:20.851Z,8.30
2023-04-18T05:28:52.789Z,8.30
2023-04-18T05:31:26.043Z,8.30
2023-04-18T05:33:56.960Z,8.30
2023-04-18T05:36:27.898Z,8.40
2023-04-18T05:38:58.706Z,8.40
2023-04-18T05:41:29.438Z,8.30
2023-04-18T05:44:05.333Z,8.40
2023-04-18T05:46:41.707Z,8.40
2023-04-18T05:49:12.287Z,8.40
2023-04-18T05:51:42.813Z,8.40
2023-04-18T05:54:14.588Z,8.40
2023-04-18T05:56:45.834Z,8.40
2023-04-18T05:59:16.496Z,8.50
2023-04-18T06:01:49.520Z,8.40
2023-04-18T06:04:20.928Z,8.40
2023-04-18T06:06:52.010Z,8.50
2023-04-18T06:09:22.304Z,8.50
2023-04-18T06:11:52.884Z,8.50
2023-04-18T06:14:23.420Z,8.50
2023-04-18T06:16:55.963Z,8.50
2023-04-18T06:19:27.403Z,8.50
2023-04-18T06:21:58.133Z,8.50
2023-04-18T06:24:30.761Z,8.50
2023-04-18T06:27:02.467Z,8.60
2023-04-18T06:29:33.366Z,8.50
2023-04-18T06:32:07.125Z,8.60
2023-04-18T06:34:38.533Z,8.60
2023-04-18T06:37:09.605Z,8.50
2023-04-18T06:39:43.094Z,8.70
2023-04-18T06:42:13.966Z,8.70
2023-04-18T06:44:53.047Z,8.70
2023-04-18T06:47:28.659Z,8.70
2023-04-18T06:50:01.135Z,8.80
2023-04-18T06:52:35.662Z,8.80
2023-04-18T06:55:07.513Z,8.90
2023-04-18T06:57:38.274Z,8.90
2023-04-18T07:00:12.265Z,8.90
2023-04-18T07:02:46.034Z,9.00
2023-04-18T07:05:20.437Z,9.10
2023-04-18T07:07:54.738Z,9.10
2023-04-18T07:10:26.848Z,9.10
2023-04-18T07:13:00.330Z,9.00
2023-04-18T07:15:35.150Z,9.20
2023-04-18T07:18:08.013Z,9.10
2023-04-18T07:20:40.457Z,9.10
2023-04-18T07:23:11.986Z,9.20
2023-04-18T07:25:43.006Z,9.20
2023-04-18T07:28:13.856Z,9.30
2023-04-18T07:30:44.273Z,9.50
2023-04-18T07:33:16.506Z,9.70
2023-04-18T07:35:50.435Z,9.70
2023-04-18T07:38:21.717Z,9.70
2023-04-18T07:40:58.653Z,9.60
2023-04-18T07:43:30.318Z,9.60
2023-04-18T07:46:01.515Z,9.40
2023-04-18T07:48:36.144Z,9.50
2023-04-18T07:51:08.677Z,9.50
2023-04-18T07:53:43.137Z,9.40
2023-04-18T07:56:14.659Z,9.40
2023-04-18T07:58:45.686Z,9.50
2023-04-18T08:01:18.467Z,9.70
2023-04-18T08:03:51.026Z,9.60
2023-04-18T08:06:21.712Z,9.60
2023-04-18T08:08:52.730Z,9.90
2023-04-18T08:11:23.120Z,10.00
2023-04-18T08:13:54.162Z,10.10
2023-04-18T08:16:25.707Z,10.30
2023-04-18T08:18:57.870Z,10.10
2023-04-18T08:21:28.378Z,10.40
2023-04-18T08:23:59.219Z,10.20
2023-04-18T08:26:29.637Z,10.40
2023-04-18T08:29:01.091Z,10.60
2023-04-18T08:31:32.858Z,10.70
2023-04-18T08:34:05.307Z,10.70
2023-04-18T08:36:36.846Z,10.60
2023-04-18T08:39:08.116Z,10.40
2023-04-18T08:41:39.378Z,10.40
2023-04-18T08:44:10.368Z,10.40
2023-04-18T08:46:40.614Z,10.30
2023-04-18T08:49:13.508Z,10.50
2023-04-18T08:51:48.783Z,10.40
2023-04-18T08:54:20.917Z,10.50
2023-04-18T08:57:06.690Z,10.60
2023-04-18T08:59:43.752Z,10.60
2023-04-18T09:02:16.420Z,10.50
2023-04-18T09:04:54.003Z,10.50
2023-04-18T09:07:32.845Z,10.60
2023-04-18T09:10:04.915Z,10.70
2023-04-18T09:12:50.412Z,10.70
2023-04-18T09:15:27.208Z,10.80
2023-04-18T09:18:00.126Z,10.80
2023-04-18T09:20:38.937Z,10.70
2023-04-18T09:23:14.988Z,10.90
2023-04-18T09:25:49.029Z,11.10
2023-04-18T09:28:28.954Z,11.00
2023-04-18T09:31:09.281Z,11.10
2023-04-18T09:33:43.148Z,11.30
2023-04-18T09:36:23.478Z,11.20
2023-04-18T09:38:56.532Z,11.20
2023-04-18T09:41:28.016Z,11.40
2023-04-18T09:44:14.949Z,11.40
2023-04-18T09:46:47.559Z,11.30
2023-04-18T09:49:19.298Z,11.30
2023-04-18T09:51:53.207Z,11.30
2023-04-18T09:54:26.533Z,11.40
2023-04-18T09:56:59.032Z,11.10
2023-04-18T09:59:42.980Z,11.20
2023-04-18T10:02:21.385Z,11.40
2023-04-18T10:04:53.250Z,11.50
2023-04-18T10:07:27.460Z,11.30
2023-04-18T10:09:57.915Z,11.50
2023-04-18T10:12:30.228Z,11.80
2023-04-18T10:15:02.381Z,11.60
2023-04-18T10:18:00.227Z,11.50
2023-04-18T10:20:36.718Z,11.10
2023-04-18T10:23:40.994Z,11.30
2023-04-18T10:26:13.130Z,11.50
2023-04-18T10:28:58.386Z,11.40
2023-04-18T10:31:44.336Z,11.40
2023-04-18T10:34:18.350Z,11.60
2023-04-18T10:37:07.615Z,12.20
2023-04-18T10:40:00.508Z,12.30
2023-04-18T10:43:01.811Z,12.20
2023-04-18T10:45:36.577Z,11.80
2023-04-18T10:48:29.573Z,12.00
2023-04-18T10:51:17.749Z,11.90
2023-04-18T10:53:53.415Z,12.20
2023-04-18T10:56:26.330Z,12.70
2023-04-18T10:59:01.490Z,12.40
2023-04-18T11:01:34.446Z,12.30
2023-04-18T11:04:14.977Z,12.30
2023-04-18T11:06:51.680Z,12.30
2023-04-18T11:09:22.723Z,11.90
2023-04-18T11:12:08.030Z,11.80
2023-04-18T11:14:42.364Z,11.70
2023-04-18T11:17:21.183Z,12.10
2023-04-18T11:19:51.788Z,11.80
2023-04-18T11:22:22.644Z,11.70
2023-04-18T11:24:53.427Z,11.80
2023-04-18T11:27:27.492Z,11.70
2023-04-18T11:29:58.533Z,11.60
2023-04-18T11:32:29.360Z,11.40
2023-04-18T11:35:00.133Z,11.30
2023-04-18T11:37:31.078Z,11.30
2023-04-18T11:40:01.621Z,11.30
2023-04-18T11:42:35.607Z,11.20
2023-04-18T11:45:11.295Z,11.20
2023-04-18T11:47:44.108Z,11.10
2023-04-18T11:50:15.826Z,10.90
2023-04-18T11:52:53.138Z,11.00
2023-04-18T11:55:27.199Z,11.00
2023-04-18T11:58:00.605Z,11.20
2023-04-18T12:00:37.240Z,11.20
2023-04-18T12:03:18.942Z,11.50
2023-04-18T12:05:49.701Z,11.90
2023-04-18T12:08:22.094Z,12.20
2023-04-18T12:10:54.181Z,13.00
2023-04-18T12:13:32.816Z,13.30
2023-04-18T12:16:04.421Z,13.10
2023-04-18T12:18:35.438Z,12.60
2023-04-18T12:21:07.278Z,12.30
2023-04-18T12:23:40.545Z,12.20
2023-04-18T12:26:19.011Z,12.70
2023-04-18T12:28:54.024Z,13.20
2023-04-18T12:31:24.437Z,13.30
2023-04-18T12:33:55.013Z,13.60
2023-04-18T12:36:26.657Z,13.80
2023-04-18T12:38:57.320Z,13.40
2023-04-18T12:41:27.689Z,13.30
2023-04-18T12:44:00.046Z,13.30
2023-04-18T12:46:30.565Z,13.20
2023-04-18T12:49:01.812Z,12.90
2023-04-18T12:51:32.182Z,12.90
2023-04-18T12:54:03.273Z,12.80
2023-04-18T12:56:33.759Z,13.00
2023-04-18T12:59:05.897Z,13.30
2023-04-18T13:01:36.333Z,13.10
2023-04-18T13:04:12.564Z,13.10
2023-04-18T13:06:43.866Z,13.00
2023-04-18T13:09:15.007Z,12.40
2023-04-18T13:14:17.735Z,12.80
2023-04-18T13:16:48.871Z,12.70
2023-04-18T13:19:19.754Z,13.00
2023-04-18T13:21:50.336Z,13.20
2023-04-18T13:24:21.223Z,12.80
2023-04-18T13:26:54.333Z,13.10
2023-04-18T13:29:26.801Z,13.40
2023-04-18T13:31:58.520Z,13.70
2023-04-18T13:34:29.246Z,14.00
2023-04-18T13:36:59.455Z,14.00
2023-04-18T13:39:30.157Z,13.50
2023-04-18T13:42:03.009Z,13.70
2023-04-18T13:44:36.411Z,14.20
2023-04-18T13:47:08.389Z,13.80
2023-04-18T13:49:39.171Z,14.10
2023-04-18T13:52:09.459Z,14.20
2023-04-18T13:54:41.468Z,13.90
2023-04-18T13:57:12.686Z,14.20
2023-04-18T13:59:47.425Z,14.30
2023-04-18T14:02:18.592Z,14.20
2023-04-18T14:04:49.926Z,14.30
2023-04-18T14:07:20.501Z,14.80
2023-04-18T14:09:53.735Z,15.50
2023-04-18T14:12:25.362Z,15.40
2023-04-18T14:14:58.133Z,14.70
2023-04-18T14:17:29.772Z,14.40
2023-04-18T14:20:00.866Z,14.40
2023-04-18T14:22:32.637Z,14.80
2023-04-18T14:25:04.719Z,14.50
2023-04-18T14:27:39.706Z,14.80
2023-04-18T14:30:15.053Z,15.00
2023-04-18T14:32:46.015Z,15.10
2023-04-18T14:35:16.993Z,15.10
2023-04-18T14:37:48.485Z,14.50
2023-04-18T14:40:19.446Z,14.30
2023-04-18T14:42:49.686Z,14.70
2023-04-18T14:45:23.379Z,14.80
2023-04-18T14:47:55.762Z,14.70
2023-04-18T14:50:27.072Z,14.40
2023-04-18T14:52:58.046Z,14.20
2023-04-18T14:55:28.871Z,13.40
2023-04-18T14:57:59.362Z,13.30
2023-04-18T15:00:32.584Z,13.40
2023-04-18T15:03:04.029Z,13.00
2023-04-18T15:05:35.076Z,12.70
2023-04-18T15:08:06.993Z,12.80
2023-04-18T15:10:38.229Z,12.90
2023-04-18T15:13:08.636Z,13.00
2023-04-18T15:15:41.219Z,12.90
2023-04-18T15:18:13.990Z,13.20
2023-04-18T15:20:44.597Z,13.10
2023-04-18T15:23:14.924Z,13.10
2023-04-18T15:25:46.926Z,13.00
2023-04-18T15:28:18.402Z,13.50
2023-04-18T15:30:50.317Z,13.60
2023-04-18T15:33:21.290Z,13.60
2023-04-18T15:35:52.047Z,13.30
2023-04-18T15:38:22.446Z,13.10
2023-04-18T15:40:53.150Z,13.00
2023-04-18T15:43:23.323Z,13.10
2023-04-18T15:45:55.517Z,13.20
2023-04-18T15:48:26.025Z,13.10
2023-04-18T15:50:57.007Z,13.00
2023-04-18T15:53:27.803Z,12.90
2023-04-18T15:56:01.056Z,12.70
2023-04-18T15:58:31.286Z,12.70
2023-04-18T16:01:04.510Z,12.60
2023-04-18T16:03:35.118Z,12.70
2023-04-18T16:06:06.404Z,12.60
2023-04-18T16:08:37.012Z,12.60
2023-04-18T16:11:08.556Z,12.60
2023-04-18T16:13:38.832Z,12.70
2023-04-18T16:16:11.151Z,12.70
2023-04-18T16:18:41.648Z,12.60
2023-04-18T16:21:15.485Z,12.60
2023-04-18T16:23:45.978Z,12.60
2023-04-18T16:26:16.899Z,12.60
2023-04-18T16:28:48.682Z,12.50
2023-04-18T16:31:20.785Z,12.60
2023-04-18T16:33:53.021Z,12.50
2023-04-18T16:36:23.821Z,12.50
2023-04-18T16:38:54.194Z,12.60
2023-04-18T16:41:24.974Z,12.60
2023-04-18T16:43:55.444Z,12.60
2023-04-18T16:46:31.439Z,12.50
2023-04-18T16:49:02.360Z,12.50
2023-04-18T16:51:33.924Z,12.40
2023-04-18T16:54:04.900Z,12.40
2023-04-18T16:56:38.418Z,12.40
2023-04-18T16:59:11.073Z,12.30
2023-04-18T17:01:43.577Z,12.30
2023-04-18T17:04:14.488Z,12.20
2023-04-18T17:06:45.831Z,12.20
2023-04-18T17:09:17.124Z,12.10
2023-04-18T17:11:49.118Z,12.10
2023-04-18T17:14:19.579Z,12.10
2023-04-18T17:16:53.723Z,12.00
2023-04-18T17:19:27.318Z,12.00
2023-04-18T17:21:58.227Z,12.00
2023-04-18T17:24:28.681Z,12.00
2023-04-18T17:27:01.565Z,12.00
2023-04-18T17:29:33.610Z,12.00
2023-04-18T17:32:07.214Z,12.00
2023-04-18T17:34:37.640Z,12.00
2023-04-18T17:37:08.385Z,12.00
2023-04-18T17:39:39.374Z,12.00
2023-04-18T17:42:10.780Z,12.00
2023-04-18T17:44:42.729Z,11.90
2023-04-18T17:47:14.865Z,11.90
2023-04-18T17:49:46.930Z,11.90
2023-04-18T17:52:18.084Z,11.90
2023-04-18T17:54:48.745Z,11.90
2023-04-18T17:57:19.807Z,11.90
2023-04-18T17:59:50.322Z,11.90
2023-04-18T18:02:23.633Z,11.90
2023-04-18T18:04:54.224Z,11.80
2023-04-18T18:07:24.864Z,11.80
2023-04-18T18:09:55.536Z,11.80
2023-04-18T18:12:26.426Z,11.80
2023-04-18T18:14:58.263Z,11.80
2023-04-18T18:17:30.379Z,11.80
2023-04-18T18:20:00.838Z,11.70
2023-04-18T18:22:31.769Z,11.70
2023-04-18T18:25:02.277Z,11.70
2023-04-18T18:27:33.416Z,11.70
2023-04-18T18:30:03.869Z,11.70
2023-04-18T18:32:36.219Z,11.70
2023-04-18T18:35:08.515Z,11.70
2023-04-18T18:37:39.686Z,11.70
2023-04-18T18:40:11.680Z,11.60
2023-04-18T18:42:42.697Z,11.60
2023-04-18T18:45:14.783Z,11.60
2023-04-18T18:47:46.748Z,11.60
2023-04-18T18:50:17.376Z,11.60
2023-04-18T18:52:48.150Z,11.60
2023-04-18T18:55:18.760Z,11.60
2023-04-18T18:57:49.745Z,11.60
2023-04-18T19:00:20.893Z,11.60
2023-04-18T19:02:53.321Z,11.50
2023-04-18T19:05:28.170Z,11.50
2023-04-18T19:08:00.215Z,11.50
2023-04-18T19:10:31.673Z,11.50
2023-04-18T19:13:07.341Z,11.50
2023-04-18T19:15:38.098Z,11.50
2023-04-18T19:18:11.024Z,11.50
2023-04-18T19:20:44.597Z,11.40
2023-04-18T19:23:20.931Z,11.40
2023-04-18T19:25:52.669Z,11.40
2023-04-18T19:28:26.931Z,11.40
2023-04-18T19:30:57.308Z,11.40
2023-04-18T19:33:30.460Z,11.40
2023-04-18T19:36:01.496Z,11.40
2023-04-18T19:38:34.734Z,11.40
2023-04-18T19:41:05.357Z,11.40
2023-04-18T19:43:41.158Z,11.30
2023-04-18T19:46:14.734Z,11.30
2023-04-18T19:48:47.123Z,11.30
2023-04-18T19:51:17.809Z,11.30
2023-04-18T19:53:53.339Z,11.30
2023-04-18T19:56:25.384Z,11.30
2023-04-18T19:58:58.799Z,11.30
2023-04-18T20:01:29.798Z,11.30
2023-04-18T20:04:08.653Z,11.30
2023-04-18T20:06:41.505Z,11.20
2023-04-18T20:09:16.977Z,11.20
2023-04-18T20:11:48.628Z,11.20
2023-04-18T20:14:29.316Z,11.20
2023-04-18T20:17:04.100Z,11.20
2023-04-18T20:19:37.799Z,11.30
2023-04-18T20:22:09.231Z,11.20
2023-04-18T20:24:40.414Z,11.20
2023-04-18T20:27:10.930Z,11.20
2023-04-18T20:29:41.743Z,11.20
2023-04-18T20:32:14.170Z,11.20
2023-04-18T20:34:47.307Z,11.20
2023-04-18T20:37:19.982Z,11.10
2023-04-18T20:39:50.936Z,11.20
2023-04-18T20:42:21.495Z,11.10
2023-04-18T20:44:54.963Z,11.10
2023-04-18T20:47:25.263Z,11.10
2023-04-18T20:49:57.795Z,11.10
2023-04-18T20:52:28.271Z,11.10
2023-04-18T20:54:59.168Z,11.00
2023-04-18T20:57:29.441Z,11.00
2023-04-18T21:00:00.257Z,11.00
2023-04-18T21:02:30.748Z,11.00
2023-04-18T21:05:03.172Z,11.00
2023-04-18T21:07:33.619Z,11.00
2023-04-18T21:10:04.527Z,11.00
2023-04-18T21:12:35.124Z,10.90
2023-04-18T21:15:07.029Z,11.00
2023-04-18T21:17:37.478Z,10.90
2023-04-18T21:20:12.076Z,10.90
2023-04-18T21:22:42.579Z,10.90
2023-04-18T21:25:13.388Z,10.80
2023-04-18T21:27:43.545Z,10.80
2023-04-18T21:30:15.088Z,10.80
2023-04-18T21:32:45.977Z,10.80
2023-04-18T21:35:20.296Z,10.80
2023-04-18T21:37:52.547Z,10.70
2023-04-18T21:40:23.288Z,10.70
2023-04-18T21:42:53.607Z,10.70
2023-04-18T21:45:24.798Z,10.70
2023-04-18T21:47:55.316Z,10.70
2023-04-18T21:50:27.712Z,10.60
2023-04-18T21:52:57.923Z,10.70
2023-04-18T21:55:28.823Z,10.60
2023-04-18T21:57:59.118Z,10.60
2023-04-18T22:00:30.090Z,10.60
2023-04-18T22:03:00.860Z,10.50
2023-04-18T22:05:34.999Z,10.50
2023-04-18T22:08:05.797Z,10.60
2023-04-18T22:10:37.085Z,10.50
2023-04-18T22:13:07.431Z,10.50
2023-04-18T22:15:39.947Z,10.50
2023-04-18T22:18:14.408Z,10.50
2023-04-18T22:20:47.724Z,10.40
2023-04-18T22:23:18.178Z,10.40
2023-04-18T22:25:49.029Z,10.30
2023-04-18T22:28:19.455Z,10.30
2023-04-18T22:30:50.159Z,10.30
2023-04-18T22:33:20.648Z,10.30
2023-04-18T22:35:52.833Z,10.20
2023-04-18T22:38:23.145Z,10.20
2023-04-18T22:40:53.668Z,10.20
2023-04-18T22:43:25.093Z,10.10
2023-04-18T22:45:55.831Z,10.10
2023-04-18T22:48:26.378Z,10.10
2023-04-18T22:50:58.374Z,10.10
2023-04-18T22:53:29.173Z,10.10
2023-04-18T22:55:59.751Z,10.00
2023-04-18T22:58:31.457Z,10.00
2023-04-18T23:01:01.975Z,9.90
2023-04-18T23:03:34.505Z,9.90
2023-04-18T23:06:09.204Z,9.90
2023-04-18T23:08:39.571Z,9.90
2023-04-18T23:11:10.838Z,9.80
2023-04-18T23:26:15.747Z,9.60
2023-04-18T23:28:46.459Z,9.60
2023-04-18T23:31:16.770Z,9.50
2023-04-18T23:33:47.779Z,9.50
2023-04-18T23:36:18.268Z,9.40
2023-04-18T23:38:48.693Z,9.40
2023-04-18T23:41:20.439Z,9.40
2023-04-18T23:43:50.836Z,9.40
2023-04-18T23:46:21.038Z,9.30
2023-04-18T23:48:52.257Z,9.30
2023-04-18T23:51:22.543Z,9.30
2023-04-18T23:53:53.137Z,9.20
2023-04-18T23:56:24.829Z,9.10
2023-04-18T23:58:55.321Z,9.00
